createdAt,value
2022-10-13T00:00:15.265Z,5.90
2022-10-13T00:02:42.967Z,5.35
2022-10-13T00:05:11.172Z,5.38
2022-10-13T00:07:38.948Z,5.10
2022-10-13T00:10:06.891Z,5.80
2022-10-13T00:12:38.158Z,5.22
2022-10-13T00:15:06.730Z,5.83
2022-10-13T00:17:36.513Z,6.10
2022-10-13T00:20:04.998Z,5.43
2022-10-13T00:22:33.124Z,5.20
2022-10-13T00:25:00.855Z,5.20
2022-10-13T00:27:29.340Z,5.80
2022-10-13T00:29:57.168Z,5.40
2022-10-13T00:32:24.812Z,5.73
2022-10-13T00:34:52.702Z,5.30
2022-10-13T00:37:20.374Z,5.65
2022-10-13T00:39:48.123Z,5.27
2022-10-13T00:42:16.105Z,6.45
2022-10-13T00:45:00.148Z,5.47
2022-10-13T00:47:29.350Z,5.57
2022-10-13T00:49:57.112Z,6.10
2022-10-13T00:52:24.824Z,6.03
2022-10-13T00:54:52.659Z,5.93
2022-10-13T00:57:21.052Z,5.97
2022-10-13T00:59:48.819Z,6.53
2022-10-13T01:02:16.830Z,5.60
2022-10-13T01:04:45.542Z,6.90
2022-10-13T01:07:14.942Z,5.97
2022-10-13T01:09:42.798Z,5.97
2022-10-13T01:12:26.012Z,6.38
2022-10-13T01:14:53.926Z,6.93
2022-10-13T01:17:30.508Z,5.93
2022-10-13T01:20:07.870Z,5.88
2022-10-13T01:22:54.203Z,6.47
2022-10-13T01:25:27.774Z,5.20
2022-10-13T01:27:58.563Z,6.22
2022-10-13T01:30:26.206Z,6.20
2022-10-13T01:32:59.969Z,5.93
2022-10-13T01:35:32.863Z,7.03
2022-10-13T01:38:12.835Z,5.45
2022-10-13T01:40:40.524Z,5.90
2022-10-13T01:43:09.680Z,5.63
2022-10-13T01:45:56.566Z,5.43
2022-10-13T01:48:24.350Z,6.63
2022-10-13T01:50:52.155Z,5.90
2022-10-13T01:53:19.961Z,6.22
2022-10-13T01:55:51.796Z,5.87
2022-10-13T01:58:19.502Z,7.47
2022-10-13T02:00:52.167Z,6.05
2022-10-13T02:03:24.756Z,6.15
2022-10-13T02:06:02.587Z,6.57
2022-10-13T02:08:36.331Z,6.15
2022-10-13T02:11:13.554Z,6.32
2022-10-13T02:13:42.770Z,4.07
2022-10-13T02:16:10.581Z,5.35
2022-10-13T02:18:38.357Z,5.55
2022-10-13T02:21:06.174Z,6.07
2022-10-13T02:23:33.912Z,5.90
2022-10-13T02:26:01.569Z,6.90
2022-10-13T02:28:29.635Z,7.75
2022-10-13T02:30:57.326Z,6.00
2022-10-13T02:33:25.036Z,5.80
2022-10-13T02:35:52.791Z,5.93
2022-10-13T02:38:20.712Z,6.33
2022-10-13T02:40:48.370Z,6.68
2022-10-13T02:43:16.718Z,5.95
2022-10-13T02:45:44.438Z,6.77
2022-10-13T02:48:12.258Z,6.10
2022-10-13T02:50:40.387Z,6.70
2022-10-13T02:53:08.129Z,6.32
2022-10-13T02:55:35.899Z,5.97
2022-10-13T02:58:03.658Z,7.10
2022-10-13T03:00:31.476Z,6.97
2022-10-13T03:02:59.245Z,6.40
2022-10-13T03:05:27.053Z,6.90
2022-10-13T03:07:55.795Z,6.90
2022-10-13T03:10:23.578Z,6.00
2022-10-13T03:12:51.217Z,6.35
2022-10-13T03:15:19.089Z,6.85
2022-10-13T03:17:46.734Z,6.28
2022-10-13T03:20:14.734Z,6.53
2022-10-13T03:22:44.932Z,6.15
2022-10-13T03:25:16.627Z,6.15
2022-10-13T03:27:44.348Z,7.07
2022-10-13T03:30:12.186Z,5.57
2022-10-13T03:32:40.843Z,5.25
2022-10-13T03:35:08.790Z,5.47
2022-10-13T03:37:36.499Z,5.70
2022-10-13T03:40:04.277Z,6.20
2022-10-13T03:42:32.025Z,6.22
2022-10-13T03:44:59.723Z,6.40
2022-10-13T03:47:27.566Z,6.50
2022-10-13T03:49:56.168Z,6.32
2022-10-13T03:52:24.017Z,6.63
2022-10-13T03:54:51.925Z,6.25
2022-10-13T03:57:19.568Z,6.47
2022-10-13T03:59:47.388Z,6.70
2022-10-13T04:02:15.035Z,6.03
2022-10-13T04:04:42.784Z,6.70
2022-10-13T04:07:10.438Z,6.05
2022-10-13T04:09:38.174Z,6.40
2022-10-13T04:12:05.946Z,6.90
2022-10-13T04:14:33.714Z,8.25
2022-10-13T04:17:01.650Z,7.33
2022-10-13T04:19:29.478Z,6.90
2022-10-13T04:21:57.257Z,7.05
2022-10-13T04:24:24.917Z,7.07
2022-10-13T04:26:52.670Z,6.78
2022-10-13T04:29:20.649Z,7.88
2022-10-13T04:31:48.357Z,7.43
2022-10-13T04:34:16.139Z,6.37
2022-10-13T04:36:44.252Z,6.78
2022-10-13T04:39:11.881Z,6.80
2022-10-13T04:41:39.866Z,7.83
2022-10-13T04:44:07.538Z,6.32
2022-10-13T04:46:35.314Z,6.78
2022-10-13T04:49:03.024Z,8.03
2022-10-13T04:51:30.749Z,6.60
2022-10-13T04:53:58.953Z,8.02
2022-10-13T04:56:26.833Z,7.75
2022-10-13T04:58:54.678Z,7.80
2022-10-13T05:01:23.270Z,5.68
2022-10-13T05:03:56.986Z,6.50
2022-10-13T05:06:25.383Z,7.60
2022-10-13T05:08:53.171Z,7.28
2022-10-13T05:11:24.500Z,8.38
2022-10-13T05:13:52.275Z,7.63
2022-10-13T05:16:21.211Z,6.75
2022-10-13T05:18:49.198Z,7.78
2022-10-13T05:21:17.721Z,6.50
2022-10-13T05:23:45.863Z,7.50
2022-10-13T05:26:14.566Z,7.80
2022-10-13T05:28:42.413Z,6.50
2022-10-13T05:31:13.368Z,8.17
2022-10-13T05:33:41.094Z,7.68
2022-10-13T05:36:09.882Z,8.10
2022-10-13T05:38:37.548Z,6.53
2022-10-13T05:41:06.223Z,6.00
2022-10-13T05:43:34.172Z,6.85
2022-10-13T05:46:02.068Z,6.80
2022-10-13T05:48:30.051Z,8.57
2022-10-13T05:50:58.622Z,8.15
2022-10-13T05:53:26.500Z,8.85
2022-10-13T05:55:54.186Z,6.97
2022-10-13T05:58:21.931Z,8.52
2022-10-13T06:00:49.649Z,8.55
2022-10-13T06:03:18.636Z,8.60
2022-10-13T06:05:47.672Z,7.10
2022-10-13T06:08:16.135Z,5.68
2022-10-13T06:10:43.934Z,8.23
2022-10-13T06:13:11.567Z,7.20
2022-10-13T06:15:39.332Z,8.23
2022-10-13T06:18:10.452Z,7.15
2022-10-13T06:20:38.193Z,4.33
2022-10-13T06:23:05.895Z,5.13
2022-10-13T06:25:33.674Z,7.57
2022-10-13T06:28:01.427Z,6.33
2022-10-13T06:30:29.196Z,4.45
2022-10-13T06:32:56.961Z,7.95
2022-10-13T06:35:24.712Z,7.70
2022-10-13T06:37:53.309Z,8.73
2022-10-13T06:40:20.946Z,9.13
2022-10-13T06:42:51.667Z,9.45
2022-10-13T06:45:22.442Z,8.60
2022-10-13T06:47:50.161Z,8.75
2022-10-13T06:50:17.926Z,9.20
2022-10-13T06:52:45.703Z,9.83
2022-10-13T06:55:13.516Z,9.40
2022-10-13T06:57:41.292Z,7.57
2022-10-13T07:00:09.372Z,8.77
2022-10-13T07:02:37.159Z,9.63
2022-10-13T07:05:05.026Z,8.50
2022-10-13T07:07:32.683Z,6.85
2022-10-13T07:10:00.438Z,8.43
2022-10-13T07:12:28.139Z,9.77
2022-10-13T07:14:55.864Z,9.13
2022-10-13T07:17:23.630Z,8.33
2022-10-13T07:19:52.788Z,8.70
2022-10-13T07:22:23.458Z,7.90
2022-10-13T07:24:51.267Z,9.00
2022-10-13T07:27:19.003Z,7.83
2022-10-13T07:29:46.644Z,9.85
2022-10-13T07:32:14.378Z,8.27
2022-10-13T07:34:42.155Z,8.83
2022-10-13T07:37:10.250Z,9.65
2022-10-13T07:39:37.959Z,9.30
2022-10-13T07:42:05.685Z,7.93
2022-10-13T07:44:33.393Z,10.23
2022-10-13T07:47:01.128Z,8.40
2022-10-13T07:49:28.878Z,9.07
2022-10-13T07:51:56.539Z,8.57
2022-10-13T07:54:25.223Z,9.50
2022-10-13T07:56:56.025Z,9.70
2022-10-13T07:59:24.400Z,9.37
2022-10-13T08:01:52.503Z,8.07
2022-10-13T08:04:20.166Z,8.02
2022-10-13T08:06:47.947Z,9.47
2022-10-13T08:09:16.749Z,8.43
2022-10-13T08:11:44.478Z,9.77
2022-10-13T08:14:13.210Z,10.02
2022-10-13T08:16:45.733Z,10.73
2022-10-13T08:19:15.702Z,10.27
2022-10-13T08:21:59.976Z,10.98
2022-10-13T08:24:29.994Z,11.57
2022-10-13T08:26:57.882Z,10.13
2022-10-13T08:29:25.582Z,11.48
2022-10-13T08:31:53.832Z,10.97
2022-10-13T08:34:22.411Z,11.27
2022-10-13T08:36:53.482Z,11.45
2022-10-13T08:39:21.917Z,12.18
2022-10-13T08:41:49.768Z,11.90
2022-10-13T08:45:05.897Z,12.73
2022-10-13T08:47:24.739Z,12.88
2022-10-13T08:49:57.767Z,12.80
2022-10-13T08:52:29.067Z,12.10
2022-10-13T08:54:57.300Z,13.50
2022-10-13T08:57:25.027Z,11.53
2022-10-13T08:59:52.862Z,13.23
2022-10-13T09:02:24.995Z,13.70
2022-10-13T09:04:53.337Z,13.18
2022-10-13T09:07:30.927Z,13.00
2022-10-13T09:09:58.723Z,13.45
2022-10-13T09:12:26.518Z,12.05
2022-10-13T09:15:01.995Z,13.07
2022-10-13T09:17:29.875Z,13.45
2022-10-13T09:20:03.586Z,11.77
2022-10-13T09:22:31.270Z,12.07
2022-10-13T09:25:07.842Z,13.02
2022-10-13T09:27:53.633Z,12.25
2022-10-13T09:30:40.002Z,11.73
2022-10-13T09:33:13.501Z,11.33
2022-10-13T09:35:45.084Z,11.73
2022-10-13T09:38:15.618Z,11.13
2022-10-13T09:40:57.005Z,12.20
2022-10-13T09:43:34.114Z,11.13
2022-10-13T09:46:02.278Z,12.90
2022-10-13T09:48:31.266Z,11.77
2022-10-13T09:50:59.326Z,11.80
2022-10-13T09:53:27.208Z,11.10
2022-10-13T09:56:11.177Z,10.90
2022-10-13T09:58:40.472Z,11.40
2022-10-13T10:01:08.218Z,11.52
2022-10-13T10:03:36.938Z,12.00
2022-10-13T10:06:06.023Z,11.70
2022-10-13T10:09:02.636Z,11.38
2022-10-13T10:11:33.684Z,11.95
2022-10-13T10:14:13.433Z,10.57
2022-10-13T10:16:42.950Z,11.38
2022-10-13T10:19:23.868Z,12.02
2022-10-13T10:21:54.372Z,11.65
2022-10-13T10:24:24.993Z,11.40
2022-10-13T10:26:56.085Z,11.25
2022-10-13T10:29:42.042Z,10.68
2022-10-13T10:32:09.771Z,10.73
2022-10-13T10:34:48.525Z,11.55
2022-10-13T10:37:22.809Z,11.45
2022-10-13T10:40:13.119Z,10.77
2022-10-13T10:42:49.686Z,11.48
2022-10-13T10:45:38.955Z,10.43
2022-10-13T10:48:25.376Z,11.10
2022-10-13T10:50:53.020Z,10.73
2022-10-13T10:53:20.782Z,11.25
2022-10-13T10:55:50.876Z,11.30
2022-10-13T10:58:21.462Z,11.00
2022-10-13T11:01:09.450Z,10.57
2022-10-13T11:03:49.354Z,9.73
2022-10-13T11:06:17.068Z,10.40
2022-10-13T11:08:48.148Z,9.65
2022-10-13T11:11:26.569Z,11.35
2022-10-13T11:14:01.390Z,10.60
2022-10-13T11:16:33.571Z,10.40
2022-10-13T11:19:07.202Z,11.20
2022-10-13T11:21:53.378Z,10.60
2022-10-13T11:24:44.286Z,11.20
2022-10-13T11:27:15.018Z,10.15
2022-10-13T11:29:57.951Z,9.77
2022-10-13T11:32:31.071Z,9.57
2022-10-13T11:35:03.305Z,9.73
2022-10-13T11:37:36.937Z,9.13
2022-10-13T11:40:14.182Z,9.57
2022-10-13T11:42:53.314Z,9.23
2022-10-13T11:45:38.178Z,9.15
2022-10-13T11:48:24.651Z,9.27
2022-10-13T11:51:01.435Z,9.03
2022-10-13T11:53:32.637Z,9.05
2022-10-13T11:56:03.597Z,9.35
2022-10-13T11:58:34.545Z,9.43
2022-10-13T12:01:02.230Z,8.60
2022-10-13T12:03:31.139Z,8.73
2022-10-13T12:06:00.907Z,8.30
2022-10-13T12:08:29.093Z,7.53
2022-10-13T12:10:58.340Z,7.32
2022-10-13T12:13:26.907Z,7.28
2022-10-13T12:16:06.285Z,6.43
2022-10-13T12:18:35.055Z,6.03
2022-10-13T12:21:11.967Z,6.50
2022-10-13T12:23:39.726Z,6.17
2022-10-13T12:26:07.519Z,6.05
2022-10-13T12:28:46.477Z,6.45
2022-10-13T12:31:18.852Z,5.85
2022-10-13T12:33:52.920Z,5.97
2022-10-13T12:36:21.878Z,5.60
2022-10-13T12:38:52.915Z,6.30
2022-10-13T12:41:29.906Z,5.67
2022-10-13T12:44:01.085Z,5.70
2022-10-13T12:46:42.302Z,6.22
2022-10-13T12:49:12.823Z,5.45
2022-10-13T12:51:40.603Z,5.47
2022-10-13T12:54:09.478Z,5.75
2022-10-13T12:56:37.312Z,4.88
2022-10-13T12:59:05.273Z,4.63
2022-10-13T13:01:33.824Z,4.03
2022-10-13T13:04:02.665Z,4.22
2022-10-13T13:06:34.538Z,3.40
2022-10-13T13:09:29.286Z,3.08
2022-10-13T13:12:29.708Z,3.35
2022-10-13T13:14:57.727Z,2.80
2022-10-13T13:20:26.522Z,2.00
2022-10-13T13:22:54.630Z,1.15
2022-10-13T13:25:22.711Z,0.90
2022-10-13T13:27:50.907Z,0.90
2022-10-13T13:30:19.760Z,0.90
2022-10-13T13:32:47.653Z,1.07
2022-10-13T13:35:15.797Z,0.80
2022-10-13T13:37:45.077Z,0.75
2022-10-13T13:40:20.576Z,0.70
2022-10-13T13:42:48.307Z,0.52
2022-10-13T13:45:16.421Z,0.68
2022-10-13T13:47:47.490Z,0.70
2022-10-13T13:50:25.360Z,0.50
2022-10-13T13:52:53.094Z,0.90
2022-10-13T13:55:20.868Z,0.77
2022-10-13T13:57:48.578Z,0.70
2022-10-13T14:00:16.671Z,1.20
2022-10-13T14:02:44.774Z,0.70
2022-10-13T14:05:12.831Z,0.93
2022-10-13T14:07:42.221Z,0.68
2022-10-13T14:10:10.644Z,0.50
2022-10-13T14:12:38.457Z,0.77
2022-10-13T14:15:06.523Z,0.80
2022-10-13T14:17:34.174Z,0.57
2022-10-13T14:20:02.111Z,0.55
2022-10-13T14:22:29.858Z,0.70
2022-10-13T14:24:57.777Z,0.40
2022-10-13T14:27:26.181Z,0.60
2022-10-13T14:29:53.891Z,0.52
2022-10-13T14:32:21.908Z,0.70
2022-10-13T14:34:50.197Z,0.50
2022-10-13T14:37:22.153Z,0.75
2022-10-13T14:39:51.990Z,0.50
2022-10-13T14:42:19.707Z,0.45
2022-10-13T14:44:47.654Z,0.50
2022-10-13T14:47:16.691Z,0.40
2022-10-13T14:49:44.502Z,0.50
2022-10-13T14:52:12.218Z,0.50
2022-10-13T14:54:43.926Z,0.80
2022-10-13T14:57:16.164Z,0.55
2022-10-13T14:59:44.230Z,0.55
2022-10-13T15:02:13.127Z,0.70
2022-10-13T15:04:43.676Z,0.53
2022-10-13T15:07:11.505Z,0.70
2022-10-13T15:09:52.172Z,0.50
2022-10-13T15:12:21.725Z,0.57
2022-10-13T15:14:49.645Z,0.70
2022-10-13T15:17:17.365Z,0.47
2022-10-13T15:19:45.004Z,0.75
2022-10-13T15:22:12.830Z,0.50
2022-10-13T15:24:40.584Z,0.80
2022-10-13T15:27:08.301Z,0.80
2022-10-13T15:29:35.995Z,0.80
2022-10-13T15:32:10.548Z,0.80
2022-10-13T15:34:41.295Z,0.90
2022-10-13T15:37:09.072Z,0.80
2022-10-13T15:39:36.813Z,0.80
2022-10-13T15:42:05.258Z,0.85
2022-10-13T15:44:51.075Z,0.63
2022-10-13T15:47:20.894Z,1.35
2022-10-13T15:49:48.598Z,0.90
2022-10-13T15:52:16.350Z,1.20
2022-10-13T15:54:44.237Z,1.63
2022-10-13T15:57:11.914Z,1.10
2022-10-13T15:59:39.657Z,0.82
2022-10-13T16:02:07.333Z,1.13
2022-10-13T16:04:37.609Z,0.98
2022-10-13T16:07:05.556Z,1.08
2022-10-13T16:09:33.217Z,1.10
2022-10-13T16:12:00.948Z,1.10
2022-10-13T16:14:28.655Z,1.60
2022-10-13T16:16:58.174Z,0.90
2022-10-13T16:19:26.463Z,1.20
2022-10-13T16:21:54.724Z,1.25
2022-10-13T16:24:22.407Z,1.30
2022-10-13T16:26:53.047Z,1.30
2022-10-13T16:29:20.775Z,1.25
2022-10-13T16:31:48.412Z,1.30
2022-10-13T16:34:16.343Z,0.80
2022-10-13T16:36:44.134Z,1.27
2022-10-13T16:39:11.966Z,1.40
2022-10-13T16:41:39.680Z,1.17
2022-10-13T16:44:07.460Z,1.37
2022-10-13T16:46:35.156Z,1.33
2022-10-13T16:49:03.144Z,1.27
2022-10-13T16:51:30.954Z,1.23
2022-10-13T16:54:04.353Z,1.52
2022-10-13T16:56:32.753Z,1.17
2022-10-13T16:59:04.430Z,1.48
2022-10-13T17:01:32.364Z,1.13
2022-10-13T17:04:00.341Z,1.48
2022-10-13T17:06:28.799Z,1.30
2022-10-13T17:08:59.193Z,1.90
2022-10-13T17:11:30.510Z,1.63
2022-10-13T17:14:01.449Z,1.25
2022-10-13T17:16:30.740Z,1.17
2022-10-13T17:18:58.403Z,1.92
2022-10-13T17:21:26.167Z,1.38
2022-10-13T17:23:55.396Z,1.07
2022-10-13T17:26:23.269Z,1.10
2022-10-13T17:28:54.522Z,1.75
2022-10-13T17:31:23.785Z,1.15
2022-10-13T17:33:52.777Z,1.57
2022-10-13T17:36:24.871Z,2.17
2022-10-13T17:38:53.003Z,1.48
2022-10-13T17:41:24.104Z,1.60
2022-10-13T17:43:54.652Z,1.65
2022-10-13T17:46:46.361Z,2.15
2022-10-13T17:49:17.371Z,2.20
2022-10-13T17:51:45.173Z,2.50
2022-10-13T17:54:16.353Z,2.42
2022-10-13T17:56:45.412Z,2.28
2022-10-13T17:59:13.796Z,2.23
2022-10-13T18:01:44.601Z,2.40
2022-10-13T18:04:16.233Z,2.40
2022-10-13T18:06:44.200Z,2.27
2022-10-13T18:09:16.180Z,2.08
2022-10-13T18:11:49.826Z,2.38
2022-10-13T18:14:19.121Z,2.70
2022-10-13T18:16:46.914Z,2.38
2022-10-13T18:19:14.667Z,2.40
2022-10-13T18:21:42.431Z,2.90
2022-10-13T18:24:10.311Z,3.10
2022-10-13T18:26:38.127Z,2.90
2022-10-13T18:29:07.142Z,2.83
2022-10-13T18:31:35.628Z,3.37
2022-10-13T18:34:04.038Z,3.25
2022-10-13T18:36:35.605Z,2.60
2022-10-13T18:39:04.536Z,3.10
2022-10-13T18:41:32.348Z,3.40
2022-10-13T18:44:00.101Z,3.25
2022-10-13T18:46:27.887Z,2.78
2022-10-13T18:48:56.007Z,2.63
2022-10-13T18:51:23.773Z,3.00
2022-10-13T18:53:51.595Z,3.25
2022-10-13T18:56:22.580Z,2.60
2022-10-13T18:58:51.369Z,2.42
2022-10-13T19:01:22.244Z,2.05
2022-10-13T19:03:51.851Z,2.33
2022-10-13T19:06:20.043Z,2.13
2022-10-13T19:08:47.807Z,2.28
2022-10-13T19:11:16.598Z,1.75
2022-10-13T19:13:44.470Z,1.67
2022-10-13T19:16:15.807Z,1.85
2022-10-13T19:18:43.545Z,1.85
2022-10-13T19:21:11.995Z,1.73
2022-10-13T19:23:40.110Z,2.70
2022-10-13T19:26:15.407Z,1.85
2022-10-13T19:28:43.707Z,2.20
2022-10-13T19:31:15.834Z,1.75
2022-10-13T19:33:44.764Z,2.10
2022-10-13T19:36:13.661Z,1.90
2022-10-13T19:38:41.430Z,2.00
2022-10-13T19:41:09.182Z,2.30
2022-10-13T19:43:36.911Z,2.30
2022-10-13T19:46:04.570Z,1.87
2022-10-13T19:48:32.295Z,1.70
2022-10-13T19:51:02.990Z,2.05
2022-10-13T19:53:30.763Z,2.10
2022-10-13T19:55:58.589Z,2.05
2022-10-13T19:58:26.305Z,2.60
2022-10-13T20:00:54.020Z,2.70
2022-10-13T20:03:21.942Z,2.67
2022-10-13T20:05:49.631Z,2.60
2022-10-13T20:08:18.749Z,2.25
2022-10-13T20:10:46.399Z,2.17
2022-10-13T20:13:14.124Z,2.50
2022-10-13T20:15:42.441Z,2.15
2022-10-13T20:18:13.089Z,2.27
2022-10-13T20:20:41.295Z,2.70
2022-10-13T20:23:09.624Z,2.60
2022-10-13T20:25:40.505Z,2.30
2022-10-13T20:28:08.185Z,2.83
2022-10-13T20:30:35.930Z,2.55
2022-10-13T20:33:03.599Z,2.47
2022-10-13T20:35:31.328Z,2.73
2022-10-13T20:37:58.974Z,3.03
2022-10-13T20:40:26.750Z,3.30
2022-10-13T20:42:57.477Z,3.70
2022-10-13T20:45:25.231Z,3.35
2022-10-13T20:47:52.996Z,3.50
2022-10-13T20:50:20.887Z,3.63
2022-10-13T20:52:48.566Z,3.60
2022-10-13T20:55:16.393Z,3.75
2022-10-13T20:57:44.100Z,3.97
2022-10-13T21:00:12.038Z,3.50
2022-10-13T21:02:39.745Z,4.10
2022-10-13T21:05:07.490Z,4.50
2022-10-13T21:07:35.219Z,4.45
2022-10-13T21:10:02.882Z,4.65
2022-10-13T21:12:30.639Z,4.88
2022-10-13T21:14:58.359Z,5.00
2022-10-13T21:17:26.114Z,4.17
2022-10-13T21:19:55.607Z,4.93
2022-10-13T21:22:23.245Z,4.22
2022-10-13T21:24:50.993Z,4.50
2022-10-13T21:27:19.727Z,3.80
2022-10-13T21:29:47.670Z,4.50
2022-10-13T21:32:17.614Z,4.10
2022-10-13T21:34:45.399Z,3.95
2022-10-13T21:37:13.277Z,3.83
2022-10-13T21:39:41.029Z,4.38
2022-10-13T21:42:08.748Z,3.87
2022-10-13T21:44:36.375Z,4.10
2022-10-13T21:47:04.097Z,4.00
2022-10-13T21:49:31.777Z,4.07
2022-10-13T21:51:59.495Z,3.72
2022-10-13T21:54:27.307Z,4.40
2022-10-13T21:56:55.072Z,4.38
2022-10-13T21:59:22.727Z,3.53
2022-10-13T22:01:50.454Z,3.83
2022-10-13T22:04:18.109Z,4.30
2022-10-13T22:06:45.865Z,3.93
2022-10-13T22:09:13.710Z,3.97
2022-10-13T22:11:44.552Z,3.75
2022-10-13T22:14:12.515Z,3.70
2022-10-13T22:16:41.388Z,4.00
2022-10-13T22:19:09.174Z,3.95
2022-10-13T22:21:37.916Z,4.00
2022-10-13T22:24:06.116Z,4.03
2022-10-13T22:26:34.520Z,4.05
2022-10-13T22:29:02.546Z,4.38
2022-10-13T22:31:30.776Z,4.47
2022-10-13T22:33:58.513Z,3.53
2022-10-13T22:36:26.247Z,3.95
2022-10-13T22:38:54.784Z,3.60
2022-10-13T22:41:22.504Z,3.88
2022-10-13T22:43:53.967Z,3.65
2022-10-13T22:46:22.516Z,4.00
2022-10-13T22:48:50.197Z,3.63
2022-10-13T22:51:20.319Z,4.05
2022-10-13T22:53:48.249Z,3.95
2022-10-13T22:56:18.215Z,3.53
2022-10-13T22:58:49.627Z,3.78
2022-10-13T23:01:17.430Z,3.70
2022-10-13T23:03:47.474Z,3.43
2022-10-13T23:06:15.563Z,4.07
2022-10-13T23:08:43.259Z,4.15
2022-10-13T23:11:11.115Z,4.00
2022-10-13T23:13:38.812Z,3.58
2022-10-13T23:16:11.070Z,3.72
2022-10-13T23:18:39.248Z,3.95
2022-10-13T23:21:09.884Z,4.00
2022-10-13T23:23:37.610Z,4.00
2022-10-13T23:26:12.389Z,3.97
2022-10-13T23:28:40.167Z,3.80
2022-10-13T23:31:12.443Z,4.60
2022-10-13T23:33:40.412Z,4.38
2022-10-13T23:36:08.539Z,4.47
2022-10-13T23:38:36.328Z,4.80
2022-10-13T23:41:07.385Z,4.40
2022-10-13T23:43:35.147Z,4.40
2022-10-13T23:46:02.874Z,4.47
2022-10-13T23:48:30.614Z,4.90
2022-10-13T23:50:58.316Z,5.40
2022-10-13T23:53:25.977Z,4.77
2022-10-13T23:55:53.753Z,4.45
2022-10-13T23:58:21.392Z,4.88
